createdAt,value
2022-12-13T00:01:54.037Z,31.10
2022-12-13T00:04:23.467Z,30.23
2022-12-13T00:06:51.150Z,32.37
2022-12-13T00:09:19.580Z,31.63
2022-12-13T00:11:48.647Z,30.77
2022-12-13T00:14:19.261Z,31.80
2022-12-13T00:16:48.324Z,32.10
2022-12-13T00:19:17.108Z,31.57
2022-12-13T00:21:44.758Z,33.63
2022-12-13T00:24:13.135Z,32.77
2022-12-13T00:26:40.502Z,34.20
2022-12-13T00:29:08.375Z,34.97
2022-12-13T00:31:58.774Z,32.20
2022-12-13T00:34:23.969Z,33.20
2022-12-13T00:36:52.334Z,34.90
2022-12-13T00:39:19.906Z,35.23
2022-12-13T00:41:47.504Z,34.43
2022-12-13T00:44:16.408Z,35.83
2022-12-13T00:46:45.487Z,36.03
2022-12-13T00:49:13.753Z,33.90
2022-12-13T00:51:42.222Z,35.33
2022-12-13T00:54:11.111Z,34.77
2022-12-13T00:56:38.650Z,33.97
2022-12-13T00:59:06.435Z,34.50
2022-12-13T01:01:36.889Z,35.07
2022-12-13T01:04:06.498Z,38.00
2022-12-13T01:06:43.971Z,35.17
2022-12-13T01:09:20.734Z,35.90
2022-12-13T01:11:48.743Z,32.33
2022-12-13T01:14:16.938Z,33.97
2022-12-13T01:16:44.306Z,32.90
2022-12-13T01:19:11.356Z,34.03
2022-12-13T01:21:38.588Z,31.93
2022-12-13T01:24:07.065Z,31.43
2022-12-13T01:26:34.444Z,32.80
2022-12-13T01:29:08.926Z,33.80
2022-12-13T01:31:37.545Z,34.83
2022-12-13T01:34:12.697Z,32.23
2022-12-13T01:36:41.867Z,32.77
2022-12-13T01:39:14.611Z,31.47
2022-12-13T01:41:44.606Z,33.00
2022-12-13T01:44:49.343Z,33.60
2022-12-13T01:47:24.974Z,32.40
2022-12-13T01:49:57.932Z,30.40
2022-12-13T01:52:30.542Z,30.57
2022-12-13T01:55:03.519Z,29.17
2022-12-13T01:57:33.294Z,30.10
2022-12-13T02:00:00.874Z,29.43
2022-12-13T02:02:28.419Z,28.67
2022-12-13T02:05:14.281Z,28.90
2022-12-13T02:07:44.266Z,28.37
2022-12-13T02:10:11.815Z,28.23
2022-12-13T02:12:42.212Z,29.20
2022-12-13T02:15:13.340Z,27.73
2022-12-13T02:18:01.866Z,30.57
2022-12-13T02:20:49.786Z,27.33
2022-12-13T02:23:51.188Z,28.67
2022-12-13T02:26:39.667Z,29.03
2022-12-13T02:29:30.374Z,28.87
2022-12-13T02:32:37.734Z,29.33
2022-12-13T02:35:17.986Z,28.07
2022-12-13T02:38:03.421Z,30.73
2022-12-13T02:40:42.439Z,28.50
2022-12-13T02:43:23.003Z,29.53
2022-12-13T02:45:54.378Z,28.93
2022-12-13T02:48:28.936Z,29.83
2022-12-13T02:50:58.010Z,28.63
2022-12-13T02:53:26.096Z,29.07
2022-12-13T02:55:53.418Z,28.90
2022-12-13T02:58:26.987Z,29.40
2022-12-13T03:01:28.695Z,27.40
2022-12-13T03:04:01.099Z,29.57
2022-12-13T03:07:02.690Z,27.27
2022-12-13T03:09:52.934Z,28.00
2022-12-13T03:13:05.107Z,28.73
2022-12-13T03:15:59.127Z,28.60
2022-12-13T03:18:35.113Z,26.83
2022-12-13T03:21:07.148Z,28.63
2022-12-13T03:23:34.382Z,28.47
2022-12-13T03:26:21.192Z,30.63
2022-12-13T03:28:49.353Z,29.33
2022-12-13T03:31:17.100Z,28.50
2022-12-13T03:33:44.792Z,30.67
2022-12-13T03:36:13.111Z,31.57
2022-12-13T03:38:42.197Z,30.33
2022-12-13T03:41:19.900Z,29.50
2022-12-13T03:43:48.217Z,30.07
2022-12-13T03:46:18.912Z,30.50
2022-12-13T03:48:47.603Z,29.20
2022-12-13T03:51:14.979Z,29.70
2022-12-13T03:53:42.330Z,29.23
2022-12-13T03:56:09.624Z,28.17
2022-12-13T03:58:38.190Z,28.20
2022-12-13T04:01:08.231Z,30.30
2022-12-13T04:03:41.828Z,28.97
2022-12-13T04:06:09.883Z,30.47
2022-12-13T04:08:38.328Z,30.20
2022-12-13T04:11:26.872Z,28.83
2022-12-13T04:13:55.530Z,28.93
2022-12-13T04:16:24.032Z,29.40
2022-12-13T04:18:51.455Z,30.57
2022-12-13T04:21:18.813Z,29.00
2022-12-13T04:23:46.515Z,30.10
2022-12-13T04:26:13.951Z,29.80
2022-12-13T04:28:40.941Z,29.00
2022-12-13T04:31:08.204Z,30.80
2022-12-13T04:33:35.630Z,31.10
2022-12-13T04:36:03.475Z,29.97
2022-12-13T04:38:30.753Z,30.63
2022-12-13T04:41:10.719Z,31.40
2022-12-13T04:43:38.254Z,32.57
2022-12-13T04:46:05.961Z,30.53
2022-12-13T04:48:36.998Z,31.77
2022-12-13T04:51:05.919Z,31.67
2022-12-13T04:53:33.441Z,32.27
2022-12-13T04:56:03.627Z,31.67
2022-12-13T04:58:32.143Z,33.73
2022-12-13T05:00:59.325Z,33.50
2022-12-13T05:03:28.933Z,33.10
2022-12-13T05:05:56.571Z,33.70
2022-12-13T05:08:23.859Z,34.00
2022-12-13T05:10:51.315Z,34.53
2022-12-13T05:13:18.719Z,33.43
2022-12-13T05:15:50.715Z,33.03
2022-12-13T05:18:20.587Z,32.43
2022-12-13T05:20:48.425Z,32.90
2022-12-13T05:23:22.779Z,32.30
2022-12-13T05:25:51.002Z,30.77
2022-12-13T05:28:27.821Z,33.20
2022-12-13T05:31:22.654Z,32.37
2022-12-13T05:33:52.158Z,31.20
2022-12-13T05:36:20.768Z,31.30
2022-12-13T05:38:47.572Z,30.47
2022-12-13T05:41:17.703Z,32.40
2022-12-13T05:43:44.608Z,30.27
2022-12-13T05:46:15.438Z,31.23
2022-12-13T05:48:42.825Z,33.17
2022-12-13T05:51:12.236Z,30.23
2022-12-13T05:53:42.841Z,30.17
2022-12-13T05:56:11.168Z,30.00
2022-12-13T05:58:43.081Z,28.50
2022-12-13T06:01:13.488Z,28.90
2022-12-13T06:03:41.252Z,29.57
2022-12-13T06:06:12.372Z,30.33
2022-12-13T06:08:41.173Z,29.73
2022-12-13T06:11:11.592Z,28.37
2022-12-13T06:13:43.941Z,27.37
2022-12-13T06:16:23.244Z,29.23
2022-12-13T06:18:55.900Z,27.30
2022-12-13T06:21:25.987Z,26.53
2022-12-13T06:23:52.577Z,26.87
2022-12-13T06:26:19.285Z,25.93
2022-12-13T06:28:45.921Z,26.80
2022-12-13T06:31:12.600Z,27.13
2022-12-13T06:33:39.237Z,25.27
2022-12-13T06:36:06.430Z,25.53
2022-12-13T06:38:33.464Z,25.07
2022-12-13T06:41:11.426Z,25.03
2022-12-13T06:43:38.435Z,24.93
2022-12-13T06:46:06.109Z,26.00
2022-12-13T06:48:33.179Z,24.67
2022-12-13T06:51:04.352Z,24.73
2022-12-13T06:53:33.004Z,25.87
2022-12-13T06:56:04.567Z,24.73
2022-12-13T06:58:33.673Z,24.77
2022-12-13T07:01:14.562Z,24.93
2022-12-13T07:03:41.648Z,25.00
2022-12-13T07:06:19.520Z,24.93
2022-12-13T07:08:51.743Z,24.37
2022-12-13T07:11:21.680Z,25.20
2022-12-13T07:13:48.313Z,25.07
2022-12-13T07:16:15.459Z,25.47
2022-12-13T07:18:42.117Z,25.37
2022-12-13T07:21:21.898Z,24.13
2022-12-13T07:23:55.157Z,24.03
2022-12-13T07:26:23.076Z,23.17
2022-12-13T07:28:54.692Z,24.20
2022-12-13T07:31:21.773Z,22.93
2022-12-13T07:33:48.758Z,24.47
2022-12-13T07:36:20.333Z,24.10
2022-12-13T07:38:57.574Z,24.07
2022-12-13T07:41:25.890Z,23.63
2022-12-13T07:43:54.829Z,24.87
2022-12-13T07:46:32.636Z,24.23
2022-12-13T07:49:04.570Z,24.63
2022-12-13T07:51:33.809Z,24.80
2022-12-13T07:54:00.747Z,26.43
2022-12-13T07:56:27.316Z,27.07
2022-12-13T07:58:53.911Z,27.37
2022-12-13T08:01:20.701Z,28.13
2022-12-13T08:03:50.607Z,28.80
2022-12-13T08:06:19.220Z,27.47
2022-12-13T08:08:46.693Z,28.07
2022-12-13T08:11:16.537Z,30.80
2022-12-13T08:13:43.308Z,29.80
2022-12-13T08:16:26.002Z,29.37
2022-12-13T08:19:02.333Z,29.90
2022-12-13T08:21:54.013Z,31.10
2022-12-13T08:24:22.754Z,30.73
2022-12-13T08:26:49.479Z,31.13
2022-12-13T08:29:23.285Z,32.00
2022-12-13T08:32:01.624Z,30.17
2022-12-13T08:34:28.525Z,31.03
2022-12-13T08:37:01.446Z,31.40
2022-12-13T08:39:30.661Z,29.87
2022-12-13T08:42:01.023Z,31.63
2022-12-13T08:44:44.744Z,31.00
2022-12-13T08:47:11.410Z,31.43
2022-12-13T08:49:38.021Z,33.33
2022-12-13T08:52:07.541Z,36.93
2022-12-13T08:54:34.473Z,33.03
2022-12-13T08:57:01.094Z,33.37
2022-12-13T08:59:27.756Z,33.40
2022-12-13T09:01:57.607Z,33.47
2022-12-13T09:04:31.733Z,37.97
2022-12-13T09:07:01.841Z,32.50
2022-12-13T09:09:29.381Z,32.53
2022-12-13T09:11:59.680Z,34.40
2022-12-13T09:14:34.075Z,32.63
2022-12-13T09:17:02.619Z,32.93
2022-12-13T09:19:37.019Z,34.23
2022-12-13T09:22:04.810Z,31.67
2022-12-13T09:24:36.251Z,31.20
2022-12-13T09:27:09.440Z,36.63
2022-12-13T09:29:37.150Z,33.23
2022-12-13T09:32:04.064Z,32.30
2022-12-13T09:34:30.795Z,32.37
2022-12-13T09:37:01.760Z,30.80
2022-12-13T09:39:29.260Z,30.97
2022-12-13T09:42:01.069Z,31.67
2022-12-13T09:44:43.996Z,32.07
2022-12-13T09:47:27.323Z,34.50
2022-12-13T09:50:14.809Z,33.23
2022-12-13T09:52:44.034Z,30.90
2022-12-13T09:55:23.129Z,30.43
2022-12-13T09:57:50.864Z,34.00
2022-12-13T10:00:21.206Z,30.73
2022-12-13T10:03:00.094Z,29.50
2022-12-13T10:05:39.548Z,31.37
2022-12-13T10:08:14.931Z,30.70
2022-12-13T10:10:43.468Z,30.03
2022-12-13T10:13:19.605Z,30.23
2022-12-13T10:16:02.251Z,30.20
2022-12-13T10:18:41.030Z,34.70
2022-12-13T10:21:17.694Z,31.30
2022-12-13T10:24:15.627Z,30.77
2022-12-13T10:26:37.537Z,32.93
2022-12-13T10:29:06.780Z,30.60
2022-12-13T10:31:49.093Z,33.10
2022-12-13T10:34:35.583Z,34.30
2022-12-13T10:37:23.997Z,35.07
2022-12-13T10:39:50.611Z,32.40
2022-12-13T10:42:22.051Z,32.83
2022-12-13T10:44:51.699Z,33.73
2022-12-13T10:47:24.306Z,33.90
2022-12-13T10:49:59.782Z,34.57
2022-12-13T10:52:43.114Z,35.03
2022-12-13T10:55:35.978Z,32.00
2022-12-13T10:58:07.249Z,31.43
2022-12-13T11:00:44.734Z,30.97
2022-12-13T11:03:29.043Z,35.77
2022-12-13T11:06:15.319Z,30.77
2022-12-13T11:08:42.125Z,32.70
2022-12-13T11:11:09.991Z,31.67
2022-12-13T11:13:41.815Z,29.50
2022-12-13T11:16:32.388Z,31.77
2022-12-13T11:19:16.218Z,30.23
2022-12-13T11:21:50.965Z,32.43
2022-12-13T11:24:24.735Z,31.47
2022-12-13T11:26:59.345Z,33.77
2022-12-13T11:29:52.031Z,35.03
2022-12-13T11:32:27.667Z,35.23
2022-12-13T11:35:13.121Z,31.97
2022-12-13T11:38:03.792Z,29.17
2022-12-13T11:40:33.505Z,30.30
2022-12-13T11:43:09.077Z,30.07
2022-12-13T11:45:52.380Z,30.03
2022-12-13T11:48:38.905Z,30.70
2022-12-13T11:51:08.689Z,30.20
2022-12-13T11:53:45.889Z,28.83
2022-12-13T11:56:31.639Z,29.13
2022-12-13T11:59:26.809Z,30.03
2022-12-13T12:02:39.213Z,30.33
2022-12-13T12:05:28.400Z,29.73
2022-12-13T12:08:43.172Z,31.03
2022-12-13T12:10:50.282Z,31.63
2022-12-13T12:13:23.377Z,32.47
2022-12-13T12:16:17.691Z,65.03
2022-12-13T12:18:44.356Z,40.70
2022-12-13T12:21:17.901Z,32.23
2022-12-13T12:23:58.532Z,34.63
2022-12-13T12:26:39.716Z,33.27
2022-12-13T12:29:11.824Z,35.17
2022-12-13T12:32:10.816Z,33.57
2022-12-13T12:35:08.447Z,33.47
2022-12-13T12:38:06.591Z,35.07
2022-12-13T12:41:16.118Z,34.10
2022-12-13T12:43:45.173Z,33.00
2022-12-13T12:47:01.505Z,36.73
2022-12-13T12:49:30.730Z,39.07
2022-12-13T12:52:16.155Z,45.10
2022-12-13T12:54:54.893Z,38.83
2022-12-13T12:57:39.423Z,38.53
2022-12-13T13:00:15.873Z,39.17
2022-12-13T13:03:20.482Z,35.00
2022-12-13T13:06:06.111Z,35.47
2022-12-13T13:08:56.429Z,37.13
2022-12-13T13:11:27.473Z,36.77
2022-12-13T13:14:07.015Z,36.60
2022-12-13T13:16:39.955Z,35.50
2022-12-13T13:19:12.655Z,37.07
2022-12-13T13:21:50.352Z,37.33
2022-12-13T13:24:18.340Z,35.33
2022-12-13T13:26:57.451Z,36.80
2022-12-13T13:29:27.881Z,35.30
2022-12-13T13:32:01.152Z,41.47
2022-12-13T13:34:31.287Z,43.53
2022-12-13T13:36:59.748Z,35.17
2022-12-13T13:39:34.270Z,34.80
2022-12-13T13:42:22.819Z,53.47
2022-12-13T13:44:52.475Z,39.53
2022-12-13T13:47:24.828Z,36.67
2022-12-13T13:50:12.583Z,37.20
2022-12-13T13:53:23.960Z,35.80
2022-12-13T13:56:28.805Z,37.23
2022-12-13T13:59:42.093Z,36.23
2022-12-13T14:02:34.550Z,35.73
2022-12-13T14:05:04.001Z,34.40
2022-12-13T14:08:06.803Z,35.07
2022-12-13T14:11:11.011Z,32.83
2022-12-13T14:14:21.717Z,31.47
2022-12-13T14:17:07.650Z,32.07
2022-12-13T14:20:08.665Z,32.10
2022-12-13T14:23:08.851Z,31.33
2022-12-13T14:25:58.924Z,29.27
2022-12-13T14:29:10.337Z,30.17
2022-12-13T14:31:44.032Z,30.97
2022-12-13T14:34:24.506Z,30.27
2022-12-13T14:36:57.670Z,30.60
2022-12-13T14:39:29.516Z,31.13
2022-12-13T14:41:58.789Z,30.53
2022-12-13T14:44:31.063Z,30.67
2022-12-13T14:47:01.781Z,29.90
2022-12-13T14:49:31.825Z,31.67
2022-12-13T14:52:27.109Z,28.63
2022-12-13T14:54:59.289Z,30.20
2022-12-13T14:57:29.277Z,31.57
2022-12-13T14:59:58.888Z,32.03
2022-12-13T15:02:31.285Z,32.87
2022-12-13T15:05:01.091Z,30.97
2022-12-13T15:07:38.389Z,33.00
2022-12-13T15:10:24.558Z,44.73
2022-12-13T15:12:52.808Z,38.23
2022-12-13T15:15:28.988Z,41.83
2022-12-13T15:18:28.643Z,41.80
2022-12-13T15:20:57.716Z,42.10
2022-12-13T15:23:30.473Z,42.33
2022-12-13T15:26:12.928Z,37.87
2022-12-13T15:29:09.779Z,35.87
2022-12-13T15:31:38.144Z,34.30
2022-12-13T15:34:31.732Z,36.00
2022-12-13T15:37:29.170Z,43.03
2022-12-13T15:40:01.118Z,41.67
2022-12-13T15:42:33.234Z,39.67
2022-12-13T15:45:03.504Z,40.73
2022-12-13T15:47:30.442Z,39.50
2022-12-13T15:50:06.356Z,49.03
2022-12-13T15:52:37.722Z,41.10
2022-12-13T15:55:07.695Z,52.97
2022-12-13T15:57:47.924Z,42.67
2022-12-13T16:00:17.608Z,40.70
2022-12-13T16:03:11.321Z,48.63
2022-12-13T16:05:42.684Z,47.50
2022-12-13T16:08:20.165Z,56.40
2022-12-13T16:10:49.750Z,46.03
2022-12-13T16:13:28.583Z,46.83
2022-12-13T16:16:26.852Z,42.90
2022-12-13T16:18:59.964Z,41.27
2022-12-13T16:21:27.888Z,42.77
2022-12-13T16:23:54.921Z,46.50
2022-12-13T16:26:28.346Z,56.30
2022-12-13T16:28:58.683Z,56.63
2022-12-13T16:31:28.245Z,47.37
2022-12-13T16:33:54.832Z,46.37
2022-12-13T16:36:21.384Z,51.93
2022-12-13T16:38:48.148Z,55.43
2022-12-13T16:41:15.603Z,46.17
2022-12-13T16:43:49.574Z,45.10
2022-12-13T16:47:13.710Z,40.33
2022-12-13T16:49:17.616Z,41.37
2022-12-13T16:51:48.207Z,47.33
2022-12-13T16:54:19.341Z,46.83
2022-12-13T16:56:52.857Z,81.67
2022-12-13T16:59:22.996Z,72.53
2022-12-13T17:01:50.538Z,74.43
2022-12-13T17:04:21.225Z,69.70
2022-12-13T17:06:54.969Z,62.27
2022-12-13T17:09:22.738Z,47.17
2022-12-13T17:11:49.323Z,44.50
2022-12-13T17:14:16.017Z,45.00
2022-12-13T17:16:42.986Z,42.57
2022-12-13T17:19:12.113Z,42.27
2022-12-13T17:21:38.804Z,45.00
2022-12-13T17:24:05.941Z,49.97
2022-12-13T17:26:32.869Z,55.43
2022-12-13T17:28:59.466Z,61.63
2022-12-13T17:31:29.216Z,54.60
2022-12-13T17:34:02.643Z,52.47
2022-12-13T17:36:31.291Z,43.63
2022-12-13T17:38:58.016Z,42.80
2022-12-13T17:41:24.699Z,43.13
2022-12-13T17:43:51.230Z,46.07
2022-12-13T17:46:19.634Z,45.57
2022-12-13T17:48:47.466Z,45.73
2022-12-13T17:51:17.417Z,43.80
2022-12-13T17:53:51.418Z,40.27
2022-12-13T17:56:20.317Z,42.27
2022-12-13T17:58:50.493Z,44.67
2022-12-13T18:01:23.697Z,45.00
2022-12-13T18:03:54.483Z,42.97
2022-12-13T18:06:30.164Z,43.43
2022-12-13T18:09:00.166Z,47.90
2022-12-13T18:11:35.068Z,49.60
2022-12-13T18:14:04.421Z,53.37
2022-12-13T18:16:37.021Z,58.47
2022-12-13T18:19:06.656Z,60.23
2022-12-13T18:21:35.182Z,55.37
2022-12-13T18:24:06.370Z,48.77
2022-12-13T18:26:33.686Z,50.30
2022-12-13T18:29:00.973Z,50.50
2022-12-13T18:31:28.303Z,46.60
2022-12-13T18:33:55.565Z,46.07
2022-12-13T18:36:24.271Z,44.80
2022-12-13T18:38:51.662Z,47.63
2022-12-13T18:41:24.070Z,48.27
2022-12-13T18:43:59.956Z,50.43
2022-12-13T18:46:28.075Z,48.63
2022-12-13T18:48:54.863Z,52.37
2022-12-13T18:51:21.478Z,53.63
2022-12-13T18:53:48.125Z,49.13
2022-12-13T18:56:18.612Z,59.70
2022-12-13T18:58:46.469Z,66.93
2022-12-13T19:01:13.844Z,64.23
2022-12-13T19:03:42.096Z,50.83
2022-12-13T19:06:11.924Z,48.63
2022-12-13T19:08:38.532Z,54.00
2022-12-13T19:11:05.465Z,57.73
2022-12-13T19:13:32.819Z,55.27
2022-12-13T19:16:09.075Z,50.80
2022-12-13T19:18:37.155Z,57.43
2022-12-13T19:21:11.792Z,53.93
2022-12-13T19:23:41.052Z,56.30
2022-12-13T19:26:10.364Z,51.83
2022-12-13T19:28:38.366Z,55.50
2022-12-13T19:31:06.868Z,58.73
2022-12-13T19:33:33.986Z,50.93
2022-12-13T19:36:01.645Z,47.20
2022-12-13T19:38:28.486Z,45.87
2022-12-13T19:40:55.113Z,46.40
2022-12-13T19:43:21.824Z,45.67
2022-12-13T19:45:49.180Z,51.37
2022-12-13T19:48:16.287Z,49.27
2022-12-13T19:50:44.207Z,49.70
2022-12-13T19:53:11.605Z,48.10
2022-12-13T19:55:43.598Z,49.97
2022-12-13T19:58:11.557Z,49.00
2022-12-13T20:00:38.309Z,48.87
2022-12-13T20:03:17.892Z,53.47
2022-12-13T20:05:45.873Z,62.40
2022-12-13T20:08:12.946Z,65.53
2022-12-13T20:10:39.602Z,61.17
2022-12-13T20:13:06.240Z,53.30
2022-12-13T20:15:33.030Z,52.23
2022-12-13T20:17:59.866Z,43.37
2022-12-13T20:20:40.983Z,39.33
2022-12-13T20:23:14.137Z,39.70
2022-12-13T20:25:40.808Z,44.87
2022-12-13T20:28:11.403Z,48.90
2022-12-13T20:30:40.989Z,44.43
2022-12-13T20:33:08.173Z,43.23
2022-12-13T20:35:35.036Z,40.83
2022-12-13T20:38:03.417Z,39.70
2022-12-13T20:40:30.409Z,35.13
2022-12-13T20:42:57.068Z,34.10
2022-12-13T20:45:23.826Z,32.30
2022-12-13T20:47:50.462Z,31.73
2022-12-13T20:50:17.212Z,30.73
2022-12-13T20:52:49.179Z,29.93
2022-12-13T20:55:20.839Z,30.90
2022-12-13T20:57:47.509Z,30.07
2022-12-13T21:00:15.051Z,29.90
2022-12-13T21:02:44.543Z,29.83
2022-12-13T21:05:14.988Z,41.37
2022-12-13T21:08:02.832Z,41.23
2022-12-13T21:10:29.639Z,38.97
2022-12-13T21:12:59.642Z,36.03
2022-12-13T21:15:26.310Z,37.63
2022-12-13T21:17:52.943Z,34.60
2022-12-13T21:20:19.877Z,34.73
2022-12-13T21:22:47.170Z,38.53
2022-12-13T21:25:14.298Z,34.33
2022-12-13T21:27:40.894Z,30.73
2022-12-13T21:30:08.635Z,28.83
2022-12-13T21:32:36.862Z,30.10
2022-12-13T21:35:04.599Z,30.43
2022-12-13T21:37:31.416Z,29.53
2022-12-13T21:40:00.942Z,29.37
2022-12-13T21:42:27.506Z,29.03
2022-12-13T21:45:02.010Z,31.33
2022-12-13T21:47:29.140Z,31.93
2022-12-13T21:49:55.824Z,30.80
2022-12-13T21:52:22.467Z,30.23
2022-12-13T21:54:52.779Z,28.93
2022-12-13T21:57:41.072Z,31.60
2022-12-13T22:00:08.464Z,36.27
2022-12-13T22:02:44.379Z,30.27
2022-12-13T22:05:11.189Z,29.77
2022-12-13T22:07:38.416Z,30.67
2022-12-13T22:10:05.597Z,40.20
2022-12-13T22:12:34.143Z,31.33
2022-12-13T22:15:01.383Z,30.83
2022-12-13T22:17:35.230Z,29.50
2022-12-13T22:20:07.829Z,29.30
2022-12-13T22:22:34.936Z,31.87
2022-12-13T22:25:02.163Z,30.40
2022-12-13T22:27:29.735Z,30.17
2022-12-13T22:29:57.731Z,30.23
2022-12-13T22:32:29.535Z,29.20
2022-12-13T22:34:56.578Z,29.57
2022-12-13T22:37:23.843Z,30.53
2022-12-13T22:39:51.461Z,32.17
2022-12-13T22:42:18.348Z,31.20
2022-12-13T22:44:44.974Z,29.90
2022-12-13T22:47:12.033Z,30.30
2022-12-13T22:49:39.982Z,28.83
2022-12-13T22:52:18.145Z,27.37
2022-12-13T22:54:44.816Z,28.20
2022-12-13T22:57:15.295Z,27.50
2022-12-13T22:59:42.850Z,28.50
2022-12-13T23:02:18.079Z,28.50
2022-12-13T23:04:44.838Z,29.20
2022-12-13T23:07:11.788Z,28.63
2022-12-13T23:09:38.501Z,26.70
2022-12-13T23:12:24.774Z,29.87
2022-12-13T23:14:51.479Z,27.37
2022-12-13T23:17:18.096Z,28.97
2022-12-13T23:19:51.047Z,28.27
2022-12-13T23:22:22.310Z,27.97
2022-12-13T23:24:49.867Z,27.93
2022-12-13T23:27:16.497Z,28.13
2022-12-13T23:29:43.702Z,28.50
2022-12-13T23:32:10.897Z,26.57
2022-12-13T23:34:37.732Z,25.63
2022-12-13T23:37:04.695Z,26.37
2022-12-13T23:39:31.336Z,26.37
2022-12-13T23:41:57.904Z,25.87
2022-12-13T23:44:24.807Z,25.53
2022-12-13T23:46:51.436Z,25.63
2022-12-13T23:49:19.283Z,25.70
2022-12-13T23:51:45.859Z,25.00
2022-12-13T23:54:16.395Z,24.70
2022-12-13T23:56:43.365Z,24.97
2022-12-13T23:59:10.088Z,23.90
